Time;durP1;ratioP1;P1;durP2;ratioP2;P2;SDS_P1;SDS_P2;PMS_P1;PMS_P2;Temp;Humidity;BMP_temperature;BMP_pressure;BME280_temperature;BME280_humidity;BME280_pressure;Samples;Min_cycle;Max_cycle;Signal;HPM_P1;HPM_P2
2022/10/17 00:02:11;;;;;;;30.97;20.63;;;11.20;99.90;;;;;;10083985;29;20699;-91
2022/10/17 00:07:13;;;;;;;34.33;19.93;;;11.30;99.90;;;;;;10091385;29;20242;-91
2022/10/17 00:12:15;;;;;;;32.53;19.90;;;11.30;99.90;;;;;;10091240;29;20644;-92
2022/10/17 00:17:18;;;;;;;32.50;20.87;;;11.40;99.90;;;;;;10091139;29;20264;-91
2022/10/17 00:22:21;;;;;;;36.60;21.67;;;11.40;99.90;;;;;;10072850;29;20724;-92
2022/10/17 00:27:23;;;;;;;32.17;20.93;;;11.70;99.90;;;;;;10061759;29;20244;-91
2022/10/17 00:32:27;;;;;;;32.10;20.53;;;11.80;99.90;;;;;;10086727;29;20242;-91
2022/10/17 00:37:31;;;;;;;30.67;20.37;;;11.80;99.90;;;;;;10074791;29;20755;-92
2022/10/17 00:42:34;;;;;;;35.00;21.90;;;11.80;99.90;;;;;;10090707;29;20702;-91
2022/10/17 00:47:36;;;;;;;31.00;20.50;;;11.80;99.90;;;;;;10090745;29;20624;-91
2022/10/17 00:52:39;;;;;;;34.03;20.60;;;11.90;99.90;;;;;;10091182;29;20244;-91
2022/10/17 00:57:44;;;;;;;34.90;23.63;;;11.90;99.90;;;;;;10073793;29;20268;-92
2022/10/17 01:02:47;;;;;;;30.53;19.93;;;12.00;99.90;;;;;;10069037;29;20235;-92
2022/10/17 01:07:52;;;;;;;30.37;20.63;;;11.90;99.90;;;;;;10072593;29;20305;-91
2022/10/17 01:13:07;;;;;;;38.40;23.33;;;11.90;99.90;;;;;;10070607;29;20203;-91
2022/10/17 01:18:45;;;;;;;34.13;23.90;;;12.00;99.90;;;;;;10071709;29;20296;-91
2022/10/17 01:23:59;;;;;;;35.60;22.77;;;12.30;99.90;;;;;;9912952;29;20286;-92
2022/10/17 01:29:29;;;;;;;35.23;22.77;;;12.20;99.90;;;;;;9915469;29;20246;-91
2022/10/17 01:34:39;;;;;;;38.17;23.70;;;12.30;99.90;;;;;;9938514;29;20253;-91
2022/10/17 01:39:58;;;;;;;33.23;22.80;;;12.40;99.90;;;;;;9940346;29;20681;-91
2022/10/17 01:45:06;;;;;;;36.47;24.33;;;12.40;99.90;;;;;;9940042;29;20748;-92
2022/10/17 01:50:15;;;;;;;33.40;23.00;;;12.60;99.90;;;;;;9925162;29;20244;-91
2022/10/17 01:55:22;;;;;;;37.90;21.83;;;12.60;99.90;;;;;;9978687;29;20291;-91
2022/10/17 02:00:26;;;;;;;40.60;22.13;;;12.50;99.90;;;;;;10096298;29;20260;-91
2022/10/17 02:05:36;;;;;;;27.20;19.23;;;12.50;99.90;;;;;;10074556;29;20987;-91
2022/10/17 02:10:48;;;;;;;36.43;23.33;;;12.30;99.90;;;;;;10084583;29;20308;-91
2022/10/17 02:15:58;;;;;;;36.40;22.30;;;12.40;99.90;;;;;;10079253;29;20208;-91
2022/10/17 02:21:28;;;;;;;35.93;23.10;;;12.30;99.90;;;;;;10078461;29;20263;-90
2022/10/17 02:26:44;;;;;;;36.77;23.40;;;12.20;99.90;;;;;;10078748;29;20215;-91
2022/10/17 02:31:57;;;;;;;34.03;22.67;;;12.40;99.90;;;;;;10078084;29;20239;-91
2022/10/17 02:37:04;;;;;;;32.77;22.50;;;12.50;99.90;;;;;;10077779;29;20348;-91
2022/10/17 02:42:10;;;;;;;32.23;21.67;;;12.40;99.90;;;;;;10078226;29;20211;-91
2022/10/17 02:47:18;;;;;;;37.70;21.37;;;12.40;99.90;;;;;;10072592;29;20312;-91
2022/10/17 02:52:44;;;;;;;33.40;23.00;;;12.40;99.90;;;;;;10074422;29;20277;-91
2022/10/17 02:57:57;;;;;;;33.57;21.67;;;12.50;99.90;;;;;;10077403;29;20781;-91
2022/10/17 03:03:00;;;;;;;34.30;21.47;;;12.40;99.90;;;;;;10070774;29;20237;-91
2022/10/17 03:08:02;;;;;;;37.93;23.40;;;12.50;99.90;;;;;;10081839;29;20316;-91
2022/10/17 03:13:05;;;;;;;36.17;23.30;;;12.60;99.90;;;;;;10091981;29;20665;-91
2022/10/17 03:18:11;;;;;;;33.03;22.70;;;12.40;99.90;;;;;;10076330;29;20259;-92
2022/10/17 03:23:14;;;;;;;29.27;20.30;;;12.30;99.90;;;;;;10093336;29;20678;-91
2022/10/17 03:28:17;;;;;;;35.43;21.37;;;12.10;99.90;;;;;;10052773;29;20243;-91
2022/10/17 03:33:20;;;;;;;32.10;21.80;;;12.00;99.90;;;;;;10067349;29;20696;-91
2022/10/17 03:38:22;;;;;;;32.93;23.00;;;11.90;99.90;;;;;;10075278;29;20699;-91
2022/10/17 03:43:25;;;;;;;32.47;21.83;;;11.90;99.90;;;;;;10074926;29;20209;-91
2022/10/17 03:48:29;;;;;;;43.40;25.47;;;11.90;99.90;;;;;;10075288;29;20265;-91
2022/10/17 03:53:32;;;;;;;35.83;23.20;;;11.90;99.90;;;;;;10074801;29;20241;-92
2022/10/17 03:58:34;;;;;;;35.20;23.27;;;11.50;99.90;;;;;;10074077;29;20725;-91
2022/10/17 04:03:38;;;;;;;35.37;23.27;;;11.60;99.90;;;;;;10059674;29;20690;-91
2022/10/17 04:08:41;;;;;;;31.67;22.90;;;11.40;99.90;;;;;;10059166;29;20305;-91
2022/10/17 04:13:55;;;;;;;32.90;23.43;;;11.30;99.90;;;;;;10074454;29;20709;-91
2022/10/17 04:18:59;;;;;;;34.73;21.10;;;11.10;99.90;;;;;;10059235;29;20252;-91
2022/10/17 04:24:06;;;;;;;34.23;22.50;;;10.90;99.90;;;;;;10058400;29;20770;-91
2022/10/17 04:29:20;;;;;;;35.90;23.73;;;10.90;99.90;;;;;;10052207;29;20270;-91
2022/10/17 04:34:25;;;;;;;36.33;22.23;;;10.80;99.90;;;;;;10062345;29;20254;-91
2022/10/17 04:39:28;;;;;;;39.93;23.00;;;10.80;99.90;;;;;;10061807;29;20336;-91
2022/10/17 04:44:34;;;;;;;30.63;23.27;;;11.00;99.90;;;;;;10073405;29;20247;-91
2022/10/17 04:49:36;;;;;;;37.13;25.60;;;10.80;99.90;;;;;;10073571;29;20307;-91
2022/10/17 04:54:44;;;;;;;34.87;23.23;;;10.90;99.90;;;;;;10058120;29;20252;-91
2022/10/17 04:59:48;;;;;;;38.97;23.83;;;10.70;99.90;;;;;;10073659;29;20321;-95
2022/10/17 05:05:03;;;;;;;41.77;26.20;;;10.90;99.90;;;;;;10073981;29;20295;-91
2022/10/17 05:10:06;;;;;;;38.00;24.77;;;10.60;99.90;;;;;;10077410;29;20719;-90
2022/10/17 05:15:09;;;;;;;35.27;24.13;;;10.40;99.90;;;;;;10074383;29;20242;-90
2022/10/17 05:20:11;;;;;;;58.50;26.20;;;10.40;99.90;;;;;;10081044;29;20287;-91
2022/10/17 05:25:14;;;;;;;52.07;24.73;;;10.40;99.90;;;;;;10080916;29;20750;-91
2022/10/17 05:30:18;;;;;;;44.53;24.40;;;10.40;99.90;;;;;;10078140;29;20257;-91
2022/10/17 05:35:24;;;;;;;61.33;24.47;;;10.40;99.90;;;;;;10068559;29;20210;-91
2022/10/17 05:40:27;;;;;;;56.87;25.27;;;10.30;99.90;;;;;;10058178;29;20298;-91
2022/10/17 05:45:30;;;;;;;69.80;26.97;;;10.40;99.90;;;;;;10026908;29;20239;-91
2022/10/17 05:50:33;;;;;;;33.70;20.27;;;10.20;99.90;;;;;;10077218;29;20258;-95
2022/10/17 05:55:43;;;;;;;52.93;27.93;;;10.40;99.90;;;;;;10057640;29;20243;-96
2022/10/17 06:00:47;;;;;;;48.07;26.63;;;10.50;99.90;;;;;;10069165;29;20233;-96
2022/10/17 06:05:51;;;;;;;53.10;27.47;;;10.40;99.90;;;;;;10084765;29;20679;-95
2022/10/17 06:10:53;;;;;;;37.73;22.17;;;10.40;99.90;;;;;;10111298;29;20225;-96
2022/10/17 06:15:56;;;;;;;67.27;32.30;;;11.40;99.90;;;;;;10060946;29;20245;-92
2022/10/17 06:21:04;;;;;;;67.53;34.13;;;11.10;99.90;;;;;;10083677;29;20254;-92
2022/10/17 06:26:08;;;;;;;64.60;30.57;;;11.00;99.90;;;;;;10070660;29;20275;-91
2022/10/17 06:31:15;;;;;;;51.63;29.70;;;11.10;99.90;;;;;;10092954;29;20648;-92
2022/10/17 06:36:18;;;;;;;59.60;28.03;;;11.10;99.90;;;;;;10074189;29;20256;-92
2022/10/17 06:41:22;;;;;;;50.10;31.13;;;11.30;99.90;;;;;;10066702;29;20272;-91
2022/10/17 06:46:28;;;;;;;58.53;31.93;;;11.60;99.90;;;;;;10075135;29;20234;-92
2022/10/17 06:51:35;;;;;;;48.73;30.80;;;12.00;99.90;;;;;;10076240;29;20270;-92
2022/10/17 06:56:41;;;;;;;47.90;31.67;;;12.20;99.90;;;;;;10058170;29;20280;-92
2022/10/17 07:02:02;;;;;;;56.97;36.23;;;12.40;99.90;;;;;;10100618;29;20254;-92
2022/10/17 07:07:05;;;;;;;60.50;36.70;;;12.60;99.90;;;;;;10074087;29;20226;-92
2022/10/17 07:12:11;;;;;;;63.20;37.40;;;12.90;99.90;;;;;;10071398;29;20251;-92
2022/10/17 07:17:18;;;;;;;53.70;36.60;;;12.90;99.90;;;;;;10078921;29;20235;-91
2022/10/17 07:22:21;;;;;;;57.63;36.77;;;13.10;99.90;;;;;;10081929;29;20697;-93
2022/10/17 07:27:27;;;;;;;57.07;37.83;;;;;;;;;;10079734;29;20252;-92
2022/10/17 07:32:30;;;;;;;61.90;37.10;;;13.50;99.90;;;;;;10087016;29;20298;-91
2022/10/17 07:37:34;;;;;;;64.80;41.13;;;13.50;99.90;;;;;;10073593;29;20821;-91
2022/10/17 07:42:37;;;;;;;60.83;38.93;;;13.60;99.90;;;;;;10064269;29;20256;-92
2022/10/17 07:47:41;;;;;;;57.93;38.40;;;;;;;;;;10098428;29;20288;-92
2022/10/17 07:52:45;;;;;;;47.53;32.37;;;14.20;99.90;;;;;;10095261;29;20244;-92
2022/10/17 07:57:47;;;;;;;54.17;35.10;;;14.50;99.90;;;;;;10087454;29;20300;-92
2022/10/17 08:02:50;;;;;;;57.73;37.70;;;14.70;99.90;;;;;;10086167;29;20264;-91
2022/10/17 08:07:53;;;;;;;58.07;38.93;;;14.80;99.90;;;;;;10091952;29;20281;-93
2022/10/17 08:12:57;;;;;;;32.93;24.47;;;14.90;99.90;;;;;;10094590;29;20241;-92
2022/10/17 08:17:59;;;;;;;56.70;35.30;;;15.60;99.90;;;;;;10071648;29;20237;-93
2022/10/17 08:23:02;;;;;;;56.27;36.53;;;15.50;99.90;;;;;;10071569;29;20305;-92
2022/10/17 08:28:05;;;;;;;55.47;36.27;;;15.40;99.90;;;;;;10081840;29;20277;-92
2022/10/17 08:33:12;;;;;;;53.27;33.03;;;15.70;99.90;;;;;;10070644;29;20317;-92
2022/10/17 08:38:15;;;;;;;56.97;35.97;;;16.20;99.90;;;;;;10077401;29;20276;-93
2022/10/17 08:44:12;;;;;;;52.70;33.53;;;16.00;99.90;;;;;;10091911;29;20244;-92
2022/10/17 08:49:41;;;;;;;36.27;25.20;;;16.40;99.90;;;;;;10047796;29;20240;-92
2022/10/17 08:54:46;;;;;;;40.07;29.33;;;16.70;99.90;;;;;;10098558;29;20244;-94
2022/10/17 08:59:52;;;;;;;42.23;30.87;;;16.60;99.90;;;;;;10096331;29;20288;-93
2022/10/17 09:05:19;;;;;;;49.80;31.97;;;17.20;99.90;;;;;;10089436;29;20310;-92
2022/10/17 09:10:42;;;;;;;44.27;30.10;;;17.40;99.90;;;;;;10091547;29;20762;-94
2022/10/17 09:16:00;;;;;;;41.73;27.37;;;17.70;99.90;;;;;;10094359;29;20300;-92
2022/10/17 09:21:25;;;;;;;48.67;33.57;;;17.80;99.90;;;;;;10098674;29;20800;-93
2022/10/17 09:26:28;;;;;;;44.53;30.13;;;18.10;99.90;;;;;;10094049;29;20304;-93
2022/10/17 09:31:43;;;;;;;44.70;29.97;;;18.30;99.90;;;;;;10081524;29;20205;-92
2022/10/17 09:36:46;;;;;;;45.60;27.40;;;18.30;99.90;;;;;;10099407;29;20240;-93
2022/10/17 09:42:00;;;;;;;38.87;28.03;;;18.60;99.90;;;;;;10102458;29;20235;-93
2022/10/17 09:47:24;;;;;;;38.47;26.10;;;18.70;99.90;;;;;;10102631;29;20796;-94
2022/10/17 09:52:32;;;;;;;34.60;25.00;;;19.00;99.90;;;;;;10080129;29;20232;-92
2022/10/17 09:57:56;;;;;;;34.23;24.10;;;19.30;99.90;;;;;;10093569;29;20217;-92
2022/10/17 10:03:09;;;;;;;38.73;23.87;;;19.40;99.90;;;;;;10076236;29;20293;-92
2022/10/17 10:08:18;;;;;;;30.13;22.00;;;19.60;99.90;;;;;;10091702;29;20287;-91
2022/10/17 10:13:24;;;;;;;32.37;22.20;;;19.70;99.90;;;;;;10092801;29;20296;-91
2022/10/17 10:18:30;;;;;;;29.23;20.47;;;19.80;99.90;;;;;;10086935;29;20239;-92
2022/10/17 10:23:39;;;;;;;27.70;20.17;;;19.90;99.90;;;;;;10077644;29;20212;-93
2022/10/17 10:28:56;;;;;;;19.97;15.40;;;20.00;99.90;;;;;;10084679;29;20220;-92
2022/10/17 10:34:02;;;;;;;25.47;16.67;;;20.10;99.90;;;;;;10095911;29;20285;-93
2022/10/17 10:39:05;;;;;;;31.03;20.23;;;20.20;99.90;;;;;;10076893;29;20312;-91
2022/10/17 10:44:15;;;;;;;27.17;17.03;;;20.30;99.90;;;;;;10075361;29;20662;-93
2022/10/17 10:49:29;;;;;;;22.27;17.67;;;20.30;99.90;;;;;;10074738;29;20275;-92
2022/10/17 10:54:38;;;;;;;16.30;12.90;;;20.40;99.90;;;;;;10094549;29;20244;-92
2022/10/17 11:00:03;;;;;;;27.43;17.23;;;20.50;99.90;;;;;;10089349;29;20304;-92
2022/10/17 11:05:18;;;;;;;18.90;13.40;;;20.60;99.90;;;;;;10091441;29;20686;-92
2022/10/17 11:11:05;;;;;;;18.00;13.30;;;20.60;99.90;;;;;;10090319;29;21023;-93
2022/10/17 11:16:18;;;;;;;19.53;14.13;;;20.40;99.90;;;;;;10057061;29;20288;-93
2022/10/17 11:21:45;;;;;;;22.33;15.13;;;20.40;99.90;;;;;;10067424;29;20271;-91
2022/10/17 11:27:03;;;;;;;20.73;14.30;;;20.40;99.90;;;;;;10073433;29;20288;-92
2022/10/17 11:32:31;;;;;;;17.97;14.67;;;20.80;99.90;;;;;;10084152;29;20308;-92
2022/10/17 11:37:38;;;;;;;20.43;13.77;;;21.00;99.90;;;;;;9927850;29;20806;-91
2022/10/17 11:43:17;;;;;;;18.83;14.43;;;21.30;99.90;;;;;;9951397;29;20752;-91
2022/10/17 11:48:30;;;;;;;20.33;13.30;;;21.10;99.90;;;;;;9930184;29;20243;-92
2022/10/17 11:53:57;;;;;;;16.43;12.87;;;21.10;99.90;;;;;;9949883;29;20246;-92
2022/10/17 11:59:15;;;;;;;25.63;14.40;;;20.90;99.90;;;;;;9951876;29;20254;-91
2022/10/17 12:04:32;;;;;;;18.93;13.80;;;21.00;99.90;;;;;;9941604;29;20246;-92
2022/10/17 12:10:00;;;;;;;17.63;11.73;;;21.00;99.90;;;;;;9956595;29;20298;-91
2022/10/17 12:15:11;;;;;;;17.37;11.83;;;21.40;99.90;;;;;;10027738;29;20285;-92
2022/10/17 12:20:23;;;;;;;18.93;11.93;;;21.40;99.90;;;;;;10051843;29;20261;-93
2022/10/17 12:25:29;;;;;;;14.67;10.73;;;21.50;99.90;;;;;;10051267;29;20241;-91
2022/10/17 12:30:33;;;;;;;18.73;12.33;;;21.60;99.90;;;;;;10030840;29;20245;-91
2022/10/17 12:35:37;;;;;;;18.10;11.50;;;21.70;99.90;;;;;;10049065;29;20245;-93
2022/10/17 12:40:42;;;;;;;26.37;12.03;;;22.70;99.90;;;;;;10023648;29;20269;-92
2022/10/17 12:46:00;;;;;;;11.13;9.32;;;22.60;99.90;;;;;;10054767;29;20272;-93
2022/10/17 12:51:10;;;;;;;11.88;10.30;;;22.70;99.90;;;;;;10036249;29;20633;-92
2022/10/17 12:56:46;;;;;;;15.82;10.30;;;22.70;99.90;;;;;;10054047;29;20221;-91
2022/10/17 13:01:53;;;;;;;17.47;10.90;;;22.50;99.90;;;;;;10018620;29;20586;-94
2022/10/17 13:06:59;;;;;;;14.77;9.90;;;22.30;99.90;;;;;;10033392;29;20257;-93
2022/10/17 13:12:04;;;;;;;12.03;9.53;;;22.30;99.90;;;;;;10057155;29;20277;-91
2022/10/17 13:17:24;;;;;;;16.70;11.40;;;22.40;99.90;;;;;;10056555;29;20562;-93
2022/10/17 13:22:30;;;;;;;16.75;11.25;;;22.20;99.90;;;;;;10039353;29;20229;-92
2022/10/17 13:27:34;;;;;;;14.30;11.50;;;22.10;99.90;;;;;;10057013;29;20237;-91
2022/10/17 13:32:39;;;;;;;17.43;12.20;;;22.00;99.90;;;;;;10063599;29;20217;-93
2022/10/17 13:37:47;;;;;;;17.90;11.73;;;21.70;99.90;;;;;;10045983;29;20290;-92
2022/10/17 13:42:57;;;;;;;19.07;12.73;;;21.70;99.90;;;;;;10046697;29;20256;-92
2022/10/17 13:48:03;;;;;;;17.58;11.80;;;21.90;99.90;;;;;;10045893;29;20258;-92
2022/10/17 13:53:13;;;;;;;14.15;10.40;;;21.70;99.90;;;;;;10045469;29;20209;-93
2022/10/17 13:58:16;;;;;;;15.20;11.00;;;21.70;99.90;;;;;;10060563;29;20227;-93
2022/10/17 14:03:21;;;;;;;19.37;11.83;;;21.60;99.90;;;;;;10062963;29;20233;-93
2022/10/17 14:08:23;;;;;;;22.37;11.23;;;21.60;99.90;;;;;;10050686;29;20668;-96
2022/10/17 14:13:29;;;;;;;17.98;11.63;;;21.50;99.90;;;;;;10050822;29;20274;-93
2022/10/17 14:18:35;;;;;;;18.95;11.65;;;21.80;99.90;;;;;;10032653;29;20214;-93
2022/10/17 14:23:43;;;;;;;17.23;10.52;;;21.60;99.90;;;;;;10045591;29;20271;-92
2022/10/17 14:28:48;;;;;;;22.47;13.00;;;21.20;99.90;;;;;;10065866;29;20200;-92
2022/10/17 14:33:52;;;;;;;18.50;13.67;;;21.00;99.90;;;;;;10064630;29;20281;-92
2022/10/17 14:38:54;;;;;;;19.33;13.17;;;20.90;99.90;;;;;;10047048;29;20270;-93
2022/10/17 14:44:01;;;;;;;28.50;13.37;;;20.80;99.90;;;;;;10063415;29;20238;-91
2022/10/17 14:49:06;;;;;;;24.50;14.67;;;20.70;99.90;;;;;;10049212;29;20201;-93
2022/10/17 14:54:21;;;;;;;27.40;16.77;;;20.70;99.90;;;;;;10063013;29;20730;-92
2022/10/17 14:59:24;;;;;;;29.13;16.83;;;20.50;99.90;;;;;;10064798;29;20225;-91
2022/10/17 15:04:47;;;;;;;24.17;17.07;;;20.30;99.90;;;;;;10027422;29;20581;-92
2022/10/17 15:09:51;;;;;;;35.13;18.23;;;20.20;99.90;;;;;;10098708;29;20197;-91
2022/10/17 15:14:53;;;;;;;42.37;21.90;;;20.10;99.90;;;;;;10105813;29;20200;-91
2022/10/17 15:19:57;;;;;;;36.57;17.97;;;19.90;99.90;;;;;;10074333;29;20205;-90
2022/10/17 15:24:59;;;;;;;25.07;15.93;;;19.70;99.90;;;;;;10105678;29;20226;-92
2022/10/17 15:30:03;;;;;;;26.13;16.03;;;19.60;99.90;;;;;;10090373;29;20170;-92
2022/10/17 15:35:06;;;;;;;26.93;16.63;;;19.50;99.90;;;;;;10112106;29;20206;-92
2022/10/17 15:40:29;;;;;;;23.80;14.10;;;19.40;99.90;;;;;;10106549;29;20274;-90
2022/10/17 15:45:32;;;;;;;21.53;16.43;;;19.20;99.90;;;;;;10075526;29;20190;-91
2022/10/17 15:50:35;;;;;;;24.47;15.80;;;18.90;99.90;;;;;;10106749;29;20241;-91
2022/10/17 15:55:37;;;;;;;24.43;14.47;;;18.70;99.90;;;;;;10107434;29;20202;-92
2022/10/17 16:00:39;;;;;;;25.03;16.77;;;18.50;99.90;;;;;;10105366;29;20250;-92
2022/10/17 16:05:45;;;;;;;41.73;23.40;;;18.30;99.90;;;;;;10101739;29;20254;-91
2022/10/17 16:10:55;;;;;;;38.33;22.43;;;18.20;99.90;;;;;;10087690;29;20227;-93
2022/10/17 16:15:57;;;;;;;32.63;18.67;;;17.90;99.90;;;;;;10098190;29;20186;-94
2022/10/17 16:21:00;;;;;;;22.40;16.80;;;17.80;99.90;;;;;;10106843;29;20198;-94
2022/10/17 16:26:02;;;;;;;29.77;18.57;;;17.60;99.90;;;;;;10115568;29;20178;-92
2022/10/17 16:31:17;;;;;;;29.23;18.60;;;17.40;99.90;;;;;;10101244;29;20186;-92
2022/10/17 16:36:21;;;;;;;35.77;20.40;;;17.30;99.90;;;;;;10081996;29;20273;-92
2022/10/17 16:41:24;;;;;;;32.83;21.67;;;17.10;99.90;;;;;;10074935;29;20233;-94
2022/10/17 16:46:28;;;;;;;30.50;18.93;;;17.10;99.90;;;;;;10105984;29;20239;-94
2022/10/17 16:51:34;;;;;;;31.50;20.50;;;17.10;99.90;;;;;;10089572;29;20186;-93
2022/10/17 16:56:37;;;;;;;35.20;21.23;;;17.10;99.90;;;;;;10104764;29;20321;-93
2022/10/17 17:01:39;;;;;;;38.53;23.97;;;17.00;99.90;;;;;;10074345;29;20247;-93
2022/10/17 17:06:41;;;;;;;41.03;21.90;;;16.80;99.90;;;;;;10077360;29;20190;-93
2022/10/17 17:11:44;;;;;;;32.53;21.27;;;16.70;99.90;;;;;;10098376;29;20961;-94
2022/10/17 17:16:46;;;;;;;30.60;21.40;;;16.50;99.90;;;;;;10095580;29;20179;-94
2022/10/17 17:21:49;;;;;;;36.47;24.23;;;16.30;99.90;;;;;;10095900;29;20218;-94
2022/10/17 17:26:54;;;;;;;37.93;23.63;;;16.10;99.90;;;;;;10091450;29;20266;-93
2022/10/17 17:31:56;;;;;;;35.33;25.10;;;16.00;99.90;;;;;;10046515;29;20231;-94
2022/10/17 17:36:59;;;;;;;44.30;24.37;;;15.80;99.90;;;;;;10062983;29;20239;-94
2022/10/17 17:42:01;;;;;;;36.77;25.60;;;15.60;99.90;;;;;;10037870;29;20262;-94
2022/10/17 17:47:04;;;;;;;35.43;25.90;;;15.50;99.90;;;;;;10058580;29;20221;-94
2022/10/17 17:52:06;;;;;;;41.63;27.13;;;15.30;99.90;;;;;;10048486;29;20202;-94
2022/10/17 17:57:09;;;;;;;47.60;27.50;;;15.30;99.90;;;;;;10050455;29;20242;-95
2022/10/17 18:02:11;;;;;;;40.43;24.87;;;15.40;99.90;;;;;;10056038;29;20278;-95
2022/10/17 18:07:14;;;;;;;36.77;25.40;;;14.80;99.90;;;;;;10039837;29;20209;-94
2022/10/17 18:12:16;;;;;;;39.33;25.80;;;14.50;99.90;;;;;;10054627;29;20214;-95
2022/10/17 18:17:19;;;;;;;39.77;26.63;;;14.10;99.90;;;;;;10053203;29;20213;-94
2022/10/17 18:22:24;;;;;;;40.67;27.07;;;13.80;99.90;;;;;;10066144;29;20262;-94
2022/10/17 18:27:27;;;;;;;47.50;26.90;;;13.50;99.90;;;;;;10079904;23;20318;-81
2022/10/17 18:32:30;;;;;;;46.83;27.77;;;13.50;99.90;;;;;;10093423;29;20236;-81
2022/10/17 18:37:33;;;;;;;57.83;33.37;;;13.40;99.90;;;;;;10071958;29;20265;-81
2022/10/17 18:42:36;;;;;;;51.33;32.00;;;;;;;;;;10081781;29;20256;-82
2022/10/17 18:47:44;;;;;;;55.40;32.03;;;13.30;99.90;;;;;;10091299;29;20328;-81
2022/10/17 18:52:47;;;;;;;61.37;34.07;;;13.10;99.90;;;;;;10077096;29;20273;-81
2022/10/17 18:57:49;;;;;;;57.47;33.23;;;12.90;99.90;;;;;;10092828;29;20815;-81
2022/10/17 19:02:52;;;;;;;65.93;33.67;;;12.60;99.90;;;;;;10073989;29;20238;-81
2022/10/17 19:07:54;;;;;;;63.80;35.43;;;12.40;99.90;;;;;;10088854;29;20240;-81
2022/10/17 19:12:57;;;;;;;59.87;36.53;;;12.40;99.90;;;;;;10097755;29;20296;-82
2022/10/17 19:17:59;;;;;;;70.63;38.53;;;12.50;99.90;;;;;;10087041;29;20244;-81
2022/10/17 19:23:02;;;;;;;75.80;43.20;;;12.50;99.90;;;;;;10073053;29;20280;-83
2022/10/17 19:28:05;;;;;;;69.57;39.60;;;12.90;99.90;;;;;;10070660;29;20269;-81
2022/10/17 19:33:07;;;;;;;68.83;40.20;;;13.20;99.90;;;;;;10092382;29;20257;-82
2022/10/17 19:38:09;;;;;;;62.60;39.07;;;13.50;99.90;;;;;;10075592;29;20256;-81
2022/10/17 19:43:12;;;;;;;64.77;37.17;;;13.60;99.90;;;;;;10061074;29;20342;-82
2022/10/17 19:48:14;;;;;;;62.37;35.57;;;13.80;99.90;;;;;;10084760;29;20277;-78
2022/10/17 19:53:18;;;;;;;59.17;35.60;;;13.90;99.90;;;;;;10083110;29;20225;-78
2022/10/17 19:58:20;;;;;;;52.57;33.37;;;13.90;99.90;;;;;;10082186;29;20287;-78
2022/10/17 20:03:24;;;;;;;50.87;31.23;;;13.90;99.90;;;;;;10059118;29;20324;-77
2022/10/17 20:08:26;;;;;;;61.60;35.67;;;13.80;99.90;;;;;;10087078;29;20242;-78
2022/10/17 20:13:29;;;;;;;62.50;35.47;;;13.90;99.90;;;;;;10064338;29;20288;-80
2022/10/17 20:18:32;;;;;;;64.47;35.23;;;14.00;99.90;;;;;;10087770;29;20237;-80
2022/10/17 20:23:35;;;;;;;51.90;33.90;;;14.10;99.90;;;;;;10098249;29;20257;-80
2022/10/17 20:28:38;;;;;;;53.83;33.17;;;14.10;99.90;;;;;;10089776;29;20276;-80
2022/10/17 20:33:40;;;;;;;48.63;30.60;;;13.90;99.90;;;;;;10088717;29;20236;-80
2022/10/17 20:38:43;;;;;;;46.30;29.70;;;13.80;99.90;;;;;;10110273;29;20240;-80
2022/10/17 20:43:45;;;;;;;42.67;27.37;;;13.70;99.90;;;;;;10116032;29;20303;-80
2022/10/17 20:48:53;;;;;;;36.77;24.13;;;13.90;99.90;;;;;;10071264;29;20233;-80
2022/10/17 20:53:55;;;;;;;40.33;24.67;;;14.10;99.90;;;;;;10089875;29;20277;-80
2022/10/17 20:59:06;;;;;;;38.20;24.83;;;13.80;99.90;;;;;;10088924;29;20670;-80
2022/10/17 21:04:08;;;;;;;43.20;24.83;;;13.80;99.90;;;;;;10089291;29;20289;-80
2022/10/17 21:09:32;;;;;;;39.27;25.30;;;13.60;99.90;;;;;;10072877;29;20269;-80
2022/10/17 21:14:35;;;;;;;36.77;24.50;;;13.50;99.90;;;;;;10087393;29;20254;-80
2022/10/17 21:19:37;;;;;;;38.50;24.93;;;13.50;99.90;;;;;;10090080;29;20236;-80
2022/10/17 21:24:40;;;;;;;39.47;23.97;;;13.20;99.90;;;;;;10071964;29;20309;-80
2022/10/17 21:29:42;;;;;;;41.60;26.80;;;13.10;99.90;;;;;;10088902;29;20678;-80
2022/10/17 21:34:45;;;;;;;37.27;24.83;;;13.00;99.90;;;;;;10088670;29;20253;-80
2022/10/17 21:39:47;;;;;;;37.10;24.73;;;13.00;99.90;;;;;;10073941;29;20241;-80
2022/10/17 21:44:49;;;;;;;38.77;25.87;;;13.10;99.90;;;;;;10090312;29;20810;-80
2022/10/17 21:49:52;;;;;;;41.63;25.23;;;13.20;99.90;;;;;;10057976;29;20732;-80
2022/10/17 21:54:54;;;;;;;39.93;24.90;;;13.20;99.90;;;;;;10052989;29;20253;-80
2022/10/17 21:59:57;;;;;;;39.20;25.93;;;13.10;99.90;;;;;;10087362;29;20281;-80
2022/10/17 22:04:59;;;;;;;39.73;24.90;;;13.00;99.90;;;;;;10079006;29;21096;-80
2022/10/17 22:10:02;;;;;;;45.10;26.50;;;13.00;99.90;;;;;;10095540;29;20634;-80
2022/10/17 22:15:05;;;;;;;37.97;26.17;;;13.00;99.90;;;;;;10094673;29;20228;-80
2022/10/17 22:20:08;;;;;;;40.03;25.47;;;13.00;99.90;;;;;;10057262;29;20244;-80
2022/10/17 22:25:10;;;;;;;41.57;26.97;;;13.00;99.90;;;;;;10068245;29;20312;-80
2022/10/17 22:30:13;;;;;;;44.73;27.13;;;13.00;99.90;;;;;;10065305;29;20725;-80
2022/10/17 22:35:15;;;;;;;45.60;28.80;;;13.00;99.90;;;;;;10085384;29;20273;-80
2022/10/17 22:40:18;;;;;;;52.50;27.87;;;13.00;99.90;;;;;;10075754;29;20295;-80
2022/10/17 22:45:20;;;;;;;46.27;27.33;;;12.80;99.90;;;;;;10093988;29;20256;-80
2022/10/17 22:50:23;;;;;;;43.80;28.00;;;12.80;99.90;;;;;;10062882;29;20241;-79
2022/10/17 22:55:26;;;;;;;41.73;27.00;;;12.60;99.90;;;;;;10092394;29;20265;-79
2022/10/17 23:00:28;;;;;;;43.77;26.53;;;12.50;99.90;;;;;;10091560;29;20808;-80
2022/10/17 23:05:31;;;;;;;46.23;28.50;;;12.50;99.90;;;;;;10093383;29;20762;-80
2022/10/17 23:10:33;;;;;;;46.00;29.07;;;12.50;99.90;;;;;;10054876;29;20289;-80
2022/10/17 23:15:36;;;;;;;43.73;28.47;;;12.40;99.90;;;;;;10081009;29;20669;-79
2022/10/17 23:20:39;;;;;;;41.47;26.80;;;12.40;99.90;;;;;;10076076;29;20781;-79
2022/10/17 23:25:41;;;;;;;43.77;28.17;;;12.30;99.90;;;;;;10075491;29;20717;-80
2022/10/17 23:30:44;;;;;;;47.00;28.40;;;12.20;99.90;;;;;;10075100;29;20631;-80
2022/10/17 23:35:47;;;;;;;45.93;27.90;;;12.10;99.90;;;;;;10076027;29;20305;-79
2022/10/17 23:40:49;;;;;;;41.77;28.43;;;12.10;99.90;;;;;;10075433;29;20768;-79
2022/10/17 23:45:52;;;;;;;42.57;28.33;;;12.00;99.90;;;;;;10091390;29;20252;-79
2022/10/17 23:50:55;;;;;;;46.87;28.87;;;12.10;99.90;;;;;;10092142;29;20343;-79
2022/10/17 23:55:57;;;;;;;43.83;27.87;;;12.00;99.90;;;;;;10073192;29;20712;-79
